createdAt,value
2019-04-16T00:01:00.923Z,71.80
2019-04-16T00:03:30.685Z,72.30
2019-04-16T00:06:18.344Z,73.30
2019-04-16T00:09:01.576Z,72.70
2019-04-16T00:11:49.266Z,71.80
2019-04-16T00:14:32.448Z,71.10
2019-04-16T00:17:02.169Z,70.90
2019-04-16T00:19:34.730Z,70.90
2019-04-16T00:22:12.418Z,71.00
2019-04-16T00:24:43.867Z,71.10
2019-04-16T00:27:13.586Z,70.50
2019-04-16T00:29:43.303Z,70.10
2019-04-16T00:32:14.595Z,69.60
2019-04-16T00:34:44.765Z,69.20
2019-04-16T00:37:20.269Z,68.90
2019-04-16T00:39:47.558Z,68.70
2019-04-16T00:42:17.204Z,68.90
2019-04-16T00:44:46.986Z,68.70
2019-04-16T00:47:16.757Z,68.80
2019-04-16T00:49:46.418Z,69.00
2019-04-16T00:52:16.147Z,69.20
2019-04-16T00:54:45.860Z,69.50
2019-04-16T00:57:17.955Z,69.40
2019-04-16T00:59:46.945Z,69.10
2019-04-16T01:02:16.706Z,69.40
2019-04-16T01:04:46.351Z,69.50
2019-04-16T01:07:16.102Z,70.40
2019-04-16T01:09:45.806Z,69.50
2019-04-16T01:12:15.527Z,69.30
2019-04-16T01:14:45.250Z,68.60
2019-04-16T01:17:14.902Z,68.40
2019-04-16T01:19:44.664Z,68.20
2019-04-16T01:22:16.030Z,68.00
2019-04-16T01:24:45.738Z,68.20
2019-04-16T01:27:15.959Z,68.30
2019-04-16T01:29:45.706Z,68.40
2019-04-16T01:32:36.087Z,68.20
2019-04-16T01:35:19.028Z,68.60
2019-04-16T01:38:06.310Z,68.90
2019-04-16T01:40:37.738Z,68.90
2019-04-16T01:43:07.447Z,69.00
2019-04-16T01:45:37.206Z,68.90
2019-04-16T01:48:08.223Z,69.00
2019-04-16T01:50:38.181Z,69.10
2019-04-16T01:53:07.896Z,69.10
2019-04-16T01:55:37.614Z,69.30
2019-04-16T01:58:07.333Z,69.10
2019-04-16T02:00:39.255Z,69.30
2019-04-16T02:03:08.518Z,69.80
2019-04-16T02:05:38.922Z,69.70
2019-04-16T02:08:08.645Z,69.70
2019-04-16T02:10:39.493Z,69.80
2019-04-16T02:13:09.215Z,69.80
2019-04-16T02:15:38.999Z,69.70
2019-04-16T02:18:08.723Z,69.10
2019-04-16T02:20:39.308Z,69.40
2019-04-16T02:23:09.379Z,70.20
2019-04-16T02:25:39.094Z,69.50
2019-04-16T02:28:08.854Z,69.50
2019-04-16T02:30:39.808Z,69.60
2019-04-16T02:33:09.647Z,69.80
2019-04-16T02:35:39.338Z,69.90
2019-04-16T02:38:12.233Z,70.20
2019-04-16T02:40:40.694Z,70.30
2019-04-16T02:43:10.459Z,70.50
2019-04-16T02:45:40.190Z,70.60
2019-04-16T02:48:14.716Z,70.70
2019-04-16T02:50:42.860Z,70.70
2019-04-16T02:53:26.407Z,70.90
2019-04-16T02:56:18.742Z,71.10
2019-04-16T02:58:52.474Z,71.00
2019-04-16T03:01:29.666Z,71.20
2019-04-16T03:04:03.738Z,71.20
2019-04-16T03:06:33.444Z,71.40
2019-04-16T03:09:05.364Z,71.80
2019-04-16T03:11:36.091Z,72.10
2019-04-16T03:14:05.860Z,72.40
2019-04-16T03:16:52.429Z,72.30
2019-04-16T03:19:23.791Z,72.10
2019-04-16T03:21:55.642Z,72.30
2019-04-16T03:24:24.973Z,72.40
2019-04-16T03:26:54.699Z,72.50
2019-04-16T03:29:24.423Z,72.60
2019-04-16T03:31:58.242Z,72.80
2019-04-16T03:34:25.613Z,73.10
2019-04-16T03:36:55.319Z,73.70
2019-04-16T03:39:25.067Z,74.40
2019-04-16T03:41:56.295Z,74.80
2019-04-16T03:44:26.104Z,75.70
2019-04-16T03:46:55.922Z,76.80
2019-04-16T03:49:27.648Z,77.30
2019-04-16T03:51:56.993Z,77.20
2019-04-16T03:54:26.718Z,77.10
2019-04-16T03:56:56.474Z,77.20
2019-04-16T03:59:26.261Z,77.00
2019-04-16T04:05:55.921Z,76.70
2019-04-16T04:08:25.941Z,77.10
2019-04-16T04:10:55.654Z,77.30
2019-04-16T04:13:26.380Z,77.60
2019-04-16T04:15:58.508Z,77.50
2019-04-16T04:18:28.070Z,77.90
2019-04-16T04:20:57.839Z,77.90
2019-04-16T04:23:28.629Z,78.90
2019-04-16T04:25:58.923Z,78.10
2019-04-16T04:28:28.627Z,78.50
2019-04-16T04:31:01.018Z,79.90
2019-04-16T04:33:42.659Z,79.20
2019-04-16T04:36:12.890Z,79.20
2019-04-16T04:38:42.600Z,78.50
2019-04-16T04:41:12.321Z,77.60
2019-04-16T04:43:42.051Z,76.70
2019-04-16T04:46:14.807Z,76.60
2019-04-16T04:48:43.140Z,76.20
2019-04-16T04:51:12.877Z,75.10
2019-04-16T04:53:42.599Z,75.60
2019-04-16T04:56:12.311Z,74.60
2019-04-16T04:58:42.030Z,73.80
2019-04-16T05:01:13.571Z,73.50
2019-04-16T05:03:48.250Z,73.10
2019-04-16T05:06:26.815Z,72.00
2019-04-16T05:08:53.706Z,71.20
2019-04-16T05:11:23.478Z,72.10
2019-04-16T05:13:53.471Z,71.10
2019-04-16T05:16:24.539Z,70.20
2019-04-16T05:18:54.282Z,69.60
2019-04-16T05:21:24.050Z,69.30
2019-04-16T05:23:56.841Z,68.90
2019-04-16T05:26:25.235Z,68.20
2019-04-16T05:28:56.524Z,67.00
2019-04-16T05:31:26.296Z,66.60
2019-04-16T05:34:00.464Z,65.90
2019-04-16T05:36:28.611Z,66.20
2019-04-16T05:38:58.320Z,64.70
2019-04-16T05:41:28.086Z,66.00
2019-04-16T05:43:58.505Z,65.40
2019-04-16T05:46:29.186Z,64.90
2019-04-16T05:48:58.907Z,63.50
2019-04-16T05:51:31.472Z,61.60
2019-04-16T05:54:04.222Z,61.30
2019-04-16T05:56:35.554Z,60.40
2019-04-16T05:59:05.279Z,58.30
2019-04-16T06:01:36.587Z,58.60
2019-04-16T06:04:06.310Z,59.50
2019-04-16T06:06:36.050Z,59.80
2019-04-16T06:09:11.862Z,59.40
2019-04-16T06:11:39.969Z,56.10
2019-04-16T06:14:18.955Z,55.30
2019-04-16T06:17:00.272Z,56.20
2019-04-16T06:19:31.559Z,55.10
2019-04-16T06:22:02.811Z,55.00
2019-04-16T06:24:52.561Z,52.60
2019-04-16T06:27:39.923Z,53.20
2019-04-16T06:30:11.302Z,51.60
2019-04-16T06:32:48.695Z,49.90
2019-04-16T06:35:43.202Z,50.40
2019-04-16T06:38:23.733Z,51.40
2019-04-16T06:40:54.997Z,49.10
2019-04-16T06:43:27.380Z,48.50
2019-04-16T06:46:05.467Z,47.80
2019-04-16T06:48:38.079Z,46.50
2019-04-16T06:51:27.602Z,47.40
2019-04-16T06:54:15.654Z,45.80
2019-04-16T06:56:46.905Z,45.10
2019-04-16T06:59:18.232Z,44.30
2019-04-16T07:01:58.494Z,44.20
2019-04-16T07:04:32.566Z,43.50
2019-04-16T07:07:22.541Z,43.70
2019-04-16T07:09:59.506Z,41.20
2019-04-16T07:12:29.395Z,40.30
2019-04-16T07:14:59.199Z,40.00
2019-04-16T07:17:32.894Z,41.00
2019-04-16T07:20:00.292Z,41.50
2019-04-16T07:22:29.999Z,39.50
2019-04-16T07:25:03.783Z,39.30
2019-04-16T07:27:37.815Z,38.70
2019-04-16T07:30:08.883Z,38.70
2019-04-16T07:32:46.490Z,38.10
2019-04-16T07:35:17.826Z,37.10
2019-04-16T07:37:49.098Z,36.80
2019-04-16T07:40:32.543Z,36.90
2019-04-16T07:43:16.121Z,36.00
2019-04-16T07:46:02.747Z,36.00
2019-04-16T07:48:40.043Z,35.40
2019-04-16T07:51:17.402Z,36.10
2019-04-16T07:53:54.507Z,35.70
2019-04-16T07:56:27.975Z,35.30
2019-04-16T07:59:00.614Z,36.80
2019-04-16T08:01:29.084Z,37.40
2019-04-16T08:04:01.340Z,37.50
2019-04-16T08:06:30.162Z,36.50
2019-04-16T08:08:59.875Z,35.30
2019-04-16T08:11:29.588Z,33.30
2019-04-16T08:13:59.308Z,34.30
2019-04-16T08:16:29.063Z,32.70
2019-04-16T08:18:58.940Z,33.00
2019-04-16T08:21:28.594Z,33.40
2019-04-16T08:24:09.272Z,33.60
2019-04-16T08:26:41.616Z,33.80
2019-04-16T08:29:11.478Z,34.40
2019-04-16T08:31:44.554Z,33.80
2019-04-16T08:34:14.147Z,33.60
2019-04-16T08:36:43.894Z,33.70
2019-04-16T08:39:15.103Z,33.10
2019-04-16T08:41:44.854Z,32.00
2019-04-16T08:44:14.575Z,32.00
2019-04-16T08:46:44.304Z,32.50
2019-04-16T08:49:15.273Z,30.50
2019-04-16T08:51:45.035Z,31.00
2019-04-16T08:54:17.702Z,32.80
2019-04-16T08:56:46.072Z,32.20
2019-04-16T08:59:16.083Z,31.80
2019-04-16T09:01:45.795Z,31.60
2019-04-16T09:04:15.518Z,32.10
2019-04-16T09:06:46.311Z,31.60
2019-04-16T09:09:18.546Z,33.10
2019-04-16T09:11:49.489Z,30.30
2019-04-16T09:14:20.928Z,31.30
2019-04-16T09:16:52.351Z,32.10
2019-04-16T09:19:23.227Z,31.40
2019-04-16T09:21:52.946Z,31.30
2019-04-16T09:24:27.991Z,31.20
2019-04-16T09:26:59.290Z,30.80
2019-04-16T09:29:30.617Z,30.70
2019-04-16T09:32:13.833Z,32.10
2019-04-16T09:35:09.661Z,31.40
2019-04-16T09:37:53.892Z,30.60
2019-04-16T09:40:41.347Z,30.00
2019-04-16T09:43:19.633Z,27.50
2019-04-16T09:45:49.377Z,30.10
2019-04-16T09:48:19.098Z,30.10
2019-04-16T09:50:48.866Z,29.90
2019-04-16T09:53:32.241Z,27.80
2019-04-16T09:55:50.607Z,27.40
2019-04-16T09:58:22.697Z,28.30
2019-04-16T10:01:07.556Z,27.80
2019-04-16T10:03:44.864Z,27.70
2019-04-16T10:06:14.595Z,28.20
2019-04-16T10:08:45.684Z,29.20
2019-04-16T10:11:18.410Z,28.90
2019-04-16T10:13:46.864Z,29.20
2019-04-16T10:16:17.771Z,28.70
2019-04-16T10:18:47.541Z,27.10
2019-04-16T10:21:20.093Z,26.10
2019-04-16T10:23:59.310Z,26.90
2019-04-16T10:26:29.012Z,28.00
2019-04-16T10:29:00.348Z,28.90
2019-04-16T10:31:30.310Z,28.30
2019-04-16T10:34:00.030Z,28.60
2019-04-16T10:36:29.760Z,27.50
2019-04-16T10:39:07.073Z,27.70
2019-04-16T10:41:38.460Z,27.10
2019-04-16T10:44:21.757Z,28.10
2019-04-16T10:47:02.063Z,27.90
2019-04-16T10:49:33.389Z,26.10
2019-04-16T10:52:04.693Z,25.10
2019-04-16T10:54:48.056Z,25.60
2019-04-16T10:57:38.258Z,24.80
2019-04-16T11:00:26.188Z,25.70
2019-04-16T11:03:12.618Z,26.20
2019-04-16T11:05:56.800Z,24.60
2019-04-16T11:08:24.289Z,26.40
2019-04-16T11:10:54.058Z,25.00
2019-04-16T11:13:25.746Z,26.10
2019-04-16T11:15:58.065Z,26.60
2019-04-16T11:18:27.773Z,25.80
2019-04-16T11:20:57.551Z,26.00
2019-04-16T11:23:27.195Z,26.30
2019-04-16T11:25:56.952Z,25.10
2019-04-16T11:28:26.660Z,24.60
2019-04-16T11:31:00.977Z,25.50
2019-04-16T11:33:30.676Z,25.90
2019-04-16T11:36:00.435Z,24.50
2019-04-16T11:38:30.110Z,23.20
2019-04-16T11:40:59.818Z,25.40
2019-04-16T11:43:29.637Z,25.60
2019-04-16T11:45:59.310Z,27.10
2019-04-16T11:48:29.062Z,24.90
2019-04-16T11:50:58.771Z,25.10
2019-04-16T11:53:28.493Z,24.20
2019-04-16T11:55:58.167Z,25.70
2019-04-16T11:58:38.526Z,25.80
2019-04-16T12:01:12.514Z,25.70
2019-04-16T12:04:00.147Z,25.30
2019-04-16T12:06:34.262Z,25.10
2019-04-16T12:09:19.064Z,24.60
2019-04-16T12:11:50.354Z,22.50
2019-04-16T12:14:32.213Z,23.20
2019-04-16T12:17:00.342Z,24.60
2019-04-16T12:19:31.660Z,24.20
2019-04-16T12:22:05.694Z,25.70
2019-04-16T12:24:46.214Z,25.10
2019-04-16T12:27:17.528Z,25.80
2019-04-16T12:29:48.803Z,23.80
2019-04-16T12:32:27.044Z,22.30
2019-04-16T12:34:58.554Z,23.50
2019-04-16T12:37:37.367Z,23.30
2019-04-16T12:40:10.961Z,23.10
2019-04-16T12:42:47.767Z,24.00
2019-04-16T12:45:25.347Z,24.40
2019-04-16T12:48:02.679Z,24.30
2019-04-16T12:50:36.820Z,22.20
2019-04-16T12:53:09.122Z,23.10
2019-04-16T12:55:40.351Z,23.70
2019-04-16T12:58:20.543Z,22.60
2019-04-16T13:01:03.309Z,23.40
2019-04-16T13:03:33.986Z,22.50
2019-04-16T13:06:26.191Z,24.10
2019-04-16T13:09:11.729Z,23.90
2019-04-16T13:11:46.002Z,20.60
2019-04-16T13:14:33.543Z,21.20
2019-04-16T13:17:04.835Z,21.60
2019-04-16T13:19:37.278Z,22.60
2019-04-16T13:22:08.667Z,21.90
2019-04-16T13:24:56.270Z,21.40
2019-04-16T13:27:33.523Z,20.40
2019-04-16T13:30:04.263Z,21.90
2019-04-16T13:32:33.983Z,22.50
2019-04-16T13:35:04.575Z,23.00
2019-04-16T13:37:37.887Z,22.70
2019-04-16T13:40:11.755Z,21.70
2019-04-16T13:42:41.475Z,22.80
2019-04-16T13:45:25.637Z,22.70
2019-04-16T13:47:55.722Z,22.20
2019-04-16T13:50:26.567Z,21.20
2019-04-16T13:53:03.521Z,22.10
2019-04-16T13:55:38.318Z,22.40
2019-04-16T13:58:09.808Z,22.40
2019-04-16T14:00:50.314Z,22.50
2019-04-16T14:03:23.844Z,22.20
2019-04-16T14:05:53.706Z,21.90
2019-04-16T14:08:23.423Z,22.80
2019-04-16T14:10:53.194Z,23.90
2019-04-16T14:13:22.906Z,21.60
2019-04-16T14:15:52.623Z,20.70
2019-04-16T14:18:22.615Z,21.60
2019-04-16T14:20:52.372Z,20.80
2019-04-16T14:23:22.091Z,22.30
2019-04-16T14:25:52.855Z,23.10
2019-04-16T14:28:22.584Z,22.90
2019-04-16T14:30:52.299Z,22.70
2019-04-16T14:33:42.008Z,23.60
2019-04-16T14:36:13.591Z,22.70
2019-04-16T14:38:50.550Z,23.10
2019-04-16T14:41:20.319Z,23.40
2019-04-16T14:44:01.406Z,22.90
2019-04-16T14:46:29.369Z,21.90
2019-04-16T14:48:59.891Z,22.00
2019-04-16T14:51:36.364Z,21.00
2019-04-16T14:54:13.889Z,22.30
2019-04-16T14:56:48.210Z,25.10
2019-04-16T14:59:30.483Z,23.20
2019-04-16T15:01:53.115Z,23.10
2019-04-16T15:04:27.367Z,22.30
2019-04-16T15:07:04.541Z,21.80
2019-04-16T15:09:35.850Z,22.50
2019-04-16T15:12:22.406Z,22.50
2019-04-16T15:14:57.621Z,22.90
2019-04-16T15:17:34.910Z,23.00
2019-04-16T15:20:07.094Z,23.30
2019-04-16T15:22:38.420Z,23.40
2019-04-16T15:25:22.086Z,23.50
2019-04-16T15:27:53.407Z,24.10
2019-04-16T15:30:36.780Z,21.90
2019-04-16T15:33:08.203Z,22.00
2019-04-16T15:35:39.858Z,22.10
2019-04-16T15:38:17.122Z,21.90
2019-04-16T15:40:49.843Z,21.30
2019-04-16T15:43:36.470Z,21.20
2019-04-16T15:46:24.809Z,20.40
2019-04-16T15:48:58.802Z,19.30
2019-04-16T15:51:44.333Z,19.30
2019-04-16T15:54:20.823Z,19.70
2019-04-16T15:56:52.115Z,20.00
2019-04-16T15:59:39.851Z,19.90
2019-04-16T16:02:17.218Z,19.50
2019-04-16T16:04:54.319Z,19.00
2019-04-16T16:07:25.093Z,19.10
2019-04-16T16:09:59.766Z,19.00
2019-04-16T16:12:30.916Z,18.50
2019-04-16T16:15:00.881Z,18.80
2019-04-16T16:17:32.010Z,18.70
2019-04-16T16:20:01.693Z,19.00
2019-04-16T16:22:41.899Z,19.30
2019-04-16T16:25:11.911Z,19.60
2019-04-16T16:27:47.017Z,19.70
2019-04-16T16:30:15.664Z,19.60
2019-04-16T16:32:45.513Z,20.10
2019-04-16T16:35:17.755Z,20.90
2019-04-16T16:37:46.612Z,22.10
2019-04-16T16:40:16.488Z,22.90
2019-04-16T16:42:46.294Z,22.90
2019-04-16T16:45:16.079Z,22.60
2019-04-16T16:47:45.790Z,22.50
2019-04-16T16:50:15.522Z,23.10
2019-04-16T16:52:56.594Z,23.10
2019-04-16T16:55:27.906Z,23.20
2019-04-16T16:58:04.939Z,24.70
2019-04-16T17:00:52.687Z,25.90
2019-04-16T17:03:40.470Z,26.50
2019-04-16T17:06:11.814Z,27.10
2019-04-16T17:08:41.520Z,27.20
2019-04-16T17:11:16.636Z,27.30
2019-04-16T17:13:42.598Z,27.70
2019-04-16T17:16:14.409Z,27.10
2019-04-16T17:18:45.470Z,28.10
2019-04-16T17:21:15.033Z,28.10
2019-04-16T17:23:44.740Z,28.90
2019-04-16T17:26:16.055Z,28.70
2019-04-16T17:28:46.259Z,29.20
2019-04-16T17:31:16.110Z,30.00
2019-04-16T17:33:45.822Z,30.80
2019-04-16T17:36:15.545Z,32.30
2019-04-16T17:38:45.535Z,31.90
2019-04-16T17:41:31.909Z,33.60
2019-04-16T17:44:06.139Z,33.70
2019-04-16T17:46:37.454Z,33.50
2019-04-16T17:49:08.667Z,33.80
2019-04-16T17:51:40.002Z,34.60
2019-04-16T17:54:14.251Z,34.90
2019-04-16T17:56:57.635Z,35.00
2019-04-16T17:59:29.569Z,35.10
2019-04-16T18:02:17.733Z,35.50
2019-04-16T18:05:01.140Z,35.70
2019-04-16T18:07:38.453Z,36.40
2019-04-16T18:10:19.088Z,36.70
2019-04-16T18:13:07.261Z,36.80
2019-04-16T18:15:56.632Z,36.60
2019-04-16T18:18:30.907Z,37.70
2019-04-16T18:21:08.543Z,36.70
2019-04-16T18:23:55.022Z,37.30
2019-04-16T18:26:32.345Z,36.50
2019-04-16T18:29:06.399Z,36.90
2019-04-16T18:31:46.734Z,37.80
2019-04-16T18:34:24.077Z,37.00
2019-04-16T18:37:01.081Z,37.00
2019-04-16T18:39:38.294Z,37.00
2019-04-16T18:42:15.741Z,37.30
2019-04-16T18:44:56.328Z,36.90
2019-04-16T18:48:01.601Z,36.70
2019-04-16T18:50:23.585Z,36.40
2019-04-16T18:52:51.894Z,36.70
2019-04-16T18:55:22.441Z,36.50
2019-04-16T18:57:52.387Z,37.30
2019-04-16T19:00:40.126Z,37.20
2019-04-16T19:03:17.005Z,37.60
2019-04-16T19:05:55.422Z,37.30
2019-04-16T19:08:40.523Z,37.50
2019-04-16T19:10:56.530Z,37.80
2019-04-16T19:13:26.263Z,38.70
2019-04-16T19:15:56.240Z,37.70
2019-04-16T19:18:25.955Z,37.60
2019-04-16T19:20:55.692Z,38.30
2019-04-16T19:23:25.434Z,38.30
2019-04-16T19:25:56.705Z,38.50
2019-04-16T19:28:26.491Z,38.90
2019-04-16T19:30:56.519Z,39.50
2019-04-16T19:33:26.657Z,39.50
2019-04-16T19:35:56.407Z,40.30
2019-04-16T19:38:26.127Z,40.40
2019-04-16T19:40:56.001Z,40.60
2019-04-16T19:43:28.229Z,41.00
2019-04-16T19:45:57.319Z,41.70
2019-04-16T19:48:35.514Z,42.10
2019-04-16T19:50:59.073Z,42.20
2019-04-16T19:53:29.128Z,41.90
2019-04-16T19:55:58.890Z,42.00
2019-04-16T19:58:28.888Z,42.00
2019-04-16T20:00:59.169Z,42.30
2019-04-16T20:03:30.523Z,42.60
2019-04-16T20:06:00.615Z,42.50
2019-04-16T20:08:34.439Z,42.70
2019-04-16T20:11:02.258Z,43.50
2019-04-16T20:13:31.975Z,44.40
2019-04-16T20:16:01.699Z,45.00
2019-04-16T20:18:31.349Z,45.20
2019-04-16T20:21:02.197Z,45.30
2019-04-16T20:23:32.038Z,45.10
2019-04-16T20:26:01.747Z,44.60
2019-04-16T20:28:32.609Z,44.10
2019-04-16T20:31:04.290Z,44.30
2019-04-16T20:33:34.691Z,44.30
2019-04-16T20:36:05.308Z,44.40
2019-04-16T20:38:35.079Z,44.80
2019-04-16T20:41:04.794Z,44.90
2019-04-16T20:43:34.522Z,45.30
2019-04-16T20:46:04.208Z,45.30
2019-04-16T20:48:33.914Z,45.00
2019-04-16T20:51:03.912Z,45.40
2019-04-16T20:53:33.782Z,45.80
2019-04-16T20:56:04.476Z,45.90
2019-04-16T20:58:34.191Z,46.50
2019-04-16T21:01:05.485Z,47.50
2019-04-16T21:03:35.354Z,47.40
2019-04-16T21:06:07.831Z,48.10
2019-04-16T21:08:36.441Z,48.60
2019-04-16T21:11:09.127Z,49.20
2019-04-16T21:13:37.556Z,49.90
2019-04-16T21:16:07.330Z,50.90
2019-04-16T21:18:37.030Z,50.60
2019-04-16T21:21:06.760Z,50.80
2019-04-16T21:23:36.471Z,50.80
2019-04-16T21:26:06.205Z,51.10
2019-04-16T21:28:37.500Z,51.30
2019-04-16T21:31:09.158Z,52.50
2019-04-16T21:33:40.484Z,51.90
2019-04-16T21:36:11.770Z,52.70
2019-04-16T21:38:52.050Z,53.50
2019-04-16T21:41:21.699Z,54.10
2019-04-16T21:43:51.431Z,54.80
2019-04-16T21:46:21.231Z,54.90
2019-04-16T21:48:50.879Z,55.60
2019-04-16T21:51:23.974Z,55.50
2019-04-16T21:53:51.967Z,55.60
2019-04-16T21:56:22.606Z,56.00
2019-04-16T21:58:52.315Z,56.70
2019-04-16T22:01:26.378Z,57.00
2019-04-16T22:03:57.670Z,57.70
2019-04-16T22:06:27.430Z,57.80
2019-04-16T22:08:59.077Z,58.60
2019-04-16T22:11:28.527Z,59.00
2019-04-16T22:13:58.235Z,59.60
2019-04-16T22:16:29.873Z,59.90
2019-04-16T22:18:59.368Z,60.50
2019-04-16T22:21:29.124Z,61.30
2019-04-16T22:23:58.850Z,62.70
2019-04-16T22:26:28.573Z,64.20
2019-04-16T22:28:58.287Z,65.00
2019-04-16T22:37:21.110Z,67.50
2019-04-16T22:39:55.166Z,68.80
2019-04-16T22:42:35.142Z,69.60
2019-04-16T22:45:17.223Z,70.50
2019-04-16T22:47:48.626Z,71.60
2019-04-16T22:50:18.357Z,72.20
2019-04-16T22:52:48.918Z,72.80
2019-04-16T22:55:18.649Z,73.30
2019-04-16T22:57:49.939Z,73.90
2019-04-16T23:00:33.270Z,74.30
2019-04-16T23:03:03.072Z,74.70
2019-04-16T23:05:32.806Z,75.20
2019-04-16T23:08:02.818Z,75.70
2019-04-16T23:10:32.756Z,76.20
2019-04-16T23:13:02.987Z,76.40
2019-04-16T23:15:34.014Z,76.90
2019-04-16T23:18:04.084Z,77.10
2019-04-16T23:20:36.986Z,77.20
2019-04-16T23:23:05.193Z,77.40
2019-04-16T23:25:34.961Z,77.40
2019-04-16T23:28:09.792Z,77.40
2019-04-16T23:30:36.443Z,77.50
2019-04-16T23:33:07.231Z,77.80
2019-04-16T23:35:43.349Z,77.90
2019-04-16T23:38:09.169Z,78.20
2019-04-16T23:40:40.883Z,78.40
2019-04-16T23:43:27.074Z,78.80
2019-04-16T23:46:10.438Z,79.10
2019-04-16T23:48:44.792Z,79.30
2019-04-16T23:51:17.174Z,79.30
2019-04-16T23:59:40.793Z,80.30
